Fairview, Montana
Current Conditions -  °F | °C
As of 3:15 AM on Saturday 22 Nov 2014 (Local Time) from KSDY Reporting Station
Clear Clear  
Wind Chill: 18°   Ceiling: Unl
Heat Index: 27°   Visibility: 10mi
Dew Point: 23°   Wind: 8mph
Humidity: 86%   Direction: 160°SSE
Pressure: 29.54"   Gusts: NA
Location:  47.86°N, 104.04°W
Report Text: KSDY 221015Z AUTO 16007KT 10SM CLR M03/M05 A2954 RMK AO1
Loading
Personal Weather Stations






























Interactive Weather Map New forecast layout! Learn more

10-Day Weather Forecast

Advertisements
Track Severe Weather on mobile